sensor_id;sensor_type;location;lat;lon;timestamp;temperature;humidity
15450;DHT22;7826;49.784;9.934;2023-10-08T00:00:45;12.00;1.00
15450;DHT22;7826;49.784;9.934;2023-10-08T00:03:13;12.10;1.00
15450;DHT22;7826;49.784;9.934;2023-10-08T00:05:41;12.10;1.00
15450;DHT22;7826;49.784;9.934;2023-10-08T00:08:08;12.10;1.00
15450;DHT22;7826;49.784;9.934;2023-10-08T00:10:36;12.10;1.00
15450;DHT22;7826;49.784;9.934;2023-10-08T00:13:06;12.10;1.00
15450;DHT22;7826;49.784;9.934;2023-10-08T00:15:42;12.10;1.00
15450;DHT22;7826;49.784;9.934;2023-10-08T00:18:16;12.10;1.00
15450;DHT22;7826;49.784;9.934;2023-10-08T00:20:44;12.10;1.00
15450;DHT22;7826;49.784;9.934;2023-10-08T00:23:29;12.00;1.00
15450;DHT22;7826;49.784;9.934;2023-10-08T00:25:56;12.00;1.00
15450;DHT22;7826;49.784;9.934;2023-10-08T00:28:24;12.00;1.00
15450;DHT22;7826;49.784;9.934;2023-10-08T00:30:54;11.90;1.00
15450;DHT22;7826;49.784;9.934;2023-10-08T00:33:21;11.90;1.00
15450;DHT22;7826;49.784;9.934;2023-10-08T00:35:48;11.90;1.00
15450;DHT22;7826;49.784;9.934;2023-10-08T00:38:14;11.90;1.00
15450;DHT22;7826;49.784;9.934;2023-10-08T00:40:42;11.80;1.00
15450;DHT22;7826;49.784;9.934;2023-10-08T00:43:38;11.80;1.00
15450;DHT22;7826;49.784;9.934;2023-10-08T00:46:07;11.90;1.00
15450;DHT22;7826;49.784;9.934;2023-10-08T00:49:02;11.80;1.00
15450;DHT22;7826;49.784;9.934;2023-10-08T00:51:59;11.70;1.00
15450;DHT22;7826;49.784;9.934;2023-10-08T00:54:47;11.80;1.00
15450;DHT22;7826;49.784;9.934;2023-10-08T00:57:27;11.70;1.00
15450;DHT22;7826;49.784;9.934;2023-10-08T00:59:56;11.70;1.00
15450;DHT22;7826;49.784;9.934;2023-10-08T01:02:32;11.80;1.00
15450;DHT22;7826;49.784;9.934;2023-10-08T01:05:21;11.80;1.00
15450;DHT22;7826;49.784;9.934;2023-10-08T01:08:11;11.80;1.00
15450;DHT22;7826;49.784;9.934;2023-10-08T01:10:39;11.70;1.00
15450;DHT22;7826;49.784;9.934;2023-10-08T01:13:13;11.60;1.00
15450;DHT22;7826;49.784;9.934;2023-10-08T01:15:45;11.60;1.00
15450;DHT22;7826;49.784;9.934;2023-10-08T01:18:16;11.70;1.00
15450;DHT22;7826;49.784;9.934;2023-10-08T01:20:45;11.60;1.00
15450;DHT22;7826;49.784;9.934;2023-10-08T01:23:14;11.50;1.00
15450;DHT22;7826;49.784;9.934;2023-10-08T01:25:43;11.60;1.00
15450;DHT22;7826;49.784;9.934;2023-10-08T01:28:17;11.70;1.00
15450;DHT22;7826;49.784;9.934;2023-10-08T01:30:49;11.70;1.00
15450;DHT22;7826;49.784;9.934;2023-10-08T01:33:19;11.60;1.00
15450;DHT22;7826;49.784;9.934;2023-10-08T01:35:47;11.60;1.00
15450;DHT22;7826;49.784;9.934;2023-10-08T01:38:17;11.60;1.00
15450;DHT22;7826;49.784;9.934;2023-10-08T01:40:50;11.60;1.00
15450;DHT22;7826;49.784;9.934;2023-10-08T01:43:17;11.60;1.00
15450;DHT22;7826;49.784;9.934;2023-10-08T01:45:44;11.60;1.00
15450;DHT22;7826;49.784;9.934;2023-10-08T01:48:15;11.50;1.00
15450;DHT22;7826;49.784;9.934;2023-10-08T01:50:55;11.50;1.00
15450;DHT22;7826;49.784;9.934;2023-10-08T01:53:22;11.50;1.00
15450;DHT22;7826;49.784;9.934;2023-10-08T01:55:48;11.50;1.00
15450;DHT22;7826;49.784;9.934;2023-10-08T01:58:18;11.60;1.00
15450;DHT22;7826;49.784;9.934;2023-10-08T02:00:46;11.50;1.00
15450;DHT22;7826;49.784;9.934;2023-10-08T02:03:13;11.50;1.00
15450;DHT22;7826;49.784;9.934;2023-10-08T02:05:45;11.50;1.00
15450;DHT22;7826;49.784;9.934;2023-10-08T02:08:13;11.50;1.00
15450;DHT22;7826;49.784;9.934;2023-10-08T02:10:40;11.50;1.00
15450;DHT22;7826;49.784;9.934;2023-10-08T02:13:08;11.50;1.00
15450;DHT22;7826;49.784;9.934;2023-10-08T02:15:36;11.50;1.00
15450;DHT22;7826;49.784;9.934;2023-10-08T02:18:03;11.40;1.00
15450;DHT22;7826;49.784;9.934;2023-10-08T02:20:30;11.40;1.00
15450;DHT22;7826;49.784;9.934;2023-10-08T02:22:57;11.40;1.00
15450;DHT22;7826;49.784;9.934;2023-10-08T02:25:23;11.50;1.00
15450;DHT22;7826;49.784;9.934;2023-10-08T02:27:50;11.60;1.00
15450;DHT22;7826;49.784;9.934;2023-10-08T02:30:16;11.60;1.00
15450;DHT22;7826;49.784;9.934;2023-10-08T02:32:44;11.60;1.00
15450;DHT22;7826;49.784;9.934;2023-10-08T02:35:12;11.60;1.00
15450;DHT22;7826;49.784;9.934;2023-10-08T02:37:40;11.60;1.00
15450;DHT22;7826;49.784;9.934;2023-10-08T02:40:09;11.60;1.00
15450;DHT22;7826;49.784;9.934;2023-10-08T02:42:48;11.60;1.00
15450;DHT22;7826;49.784;9.934;2023-10-08T02:45:14;11.60;1.00
15450;DHT22;7826;49.784;9.934;2023-10-08T02:47:44;11.50;1.00
15450;DHT22;7826;49.784;9.934;2023-10-08T02:50:13;11.50;1.00
15450;DHT22;7826;49.784;9.934;2023-10-08T02:52:43;11.50;1.00
15450;DHT22;7826;49.784;9.934;2023-10-08T02:55:13;11.50;1.00
15450;DHT22;7826;49.784;9.934;2023-10-08T02:57:53;11.50;1.00
15450;DHT22;7826;49.784;9.934;2023-10-08T03:00:20;11.50;1.00
15450;DHT22;7826;49.784;9.934;2023-10-08T03:02:47;11.50;1.00
15450;DHT22;7826;49.784;9.934;2023-10-08T03:05:13;11.50;1.00
15450;DHT22;7826;49.784;9.934;2023-10-08T03:07:42;11.50;1.00
15450;DHT22;7826;49.784;9.934;2023-10-08T03:10:10;11.40;1.00
15450;DHT22;7826;49.784;9.934;2023-10-08T03:12:46;11.40;1.00
15450;DHT22;7826;49.784;9.934;2023-10-08T03:15:14;11.40;1.00
15450;DHT22;7826;49.784;9.934;2023-10-08T03:17:55;11.40;1.00
15450;DHT22;7826;49.784;9.934;2023-10-08T03:20:24;11.40;1.00
15450;DHT22;7826;49.784;9.934;2023-10-08T03:23:10;11.40;1.00
15450;DHT22;7826;49.784;9.934;2023-10-08T03:25:54;11.40;1.00
15450;DHT22;7826;49.784;9.934;2023-10-08T03:28:28;11.40;1.00
15450;DHT22;7826;49.784;9.934;2023-10-08T03:30:55;11.40;1.00
15450;DHT22;7826;49.784;9.934;2023-10-08T03:33:33;11.40;1.00
15450;DHT22;7826;49.784;9.934;2023-10-08T03:36:02;11.30;1.00
15450;DHT22;7826;49.784;9.934;2023-10-08T03:38:51;11.30;1.00
15450;DHT22;7826;49.784;9.934;2023-10-08T03:41:22;11.30;1.00
15450;DHT22;7826;49.784;9.934;2023-10-08T03:43:53;11.30;1.00
15450;DHT22;7826;49.784;9.934;2023-10-08T03:46:33;11.30;1.00
15450;DHT22;7826;49.784;9.934;2023-10-08T03:49:07;11.30;1.00
15450;DHT22;7826;49.784;9.934;2023-10-08T03:51:44;11.30;1.00
15450;DHT22;7826;49.784;9.934;2023-10-08T03:54:10;11.30;1.00
15450;DHT22;7826;49.784;9.934;2023-10-08T03:56:46;11.20;1.00
15450;DHT22;7826;49.784;9.934;2023-10-08T03:59:13;11.30;1.00
15450;DHT22;7826;49.784;9.934;2023-10-08T04:01:41;11.20;1.00
15450;DHT22;7826;49.784;9.934;2023-10-08T04:04:08;11.20;1.00
15450;DHT22;7826;49.784;9.934;2023-10-08T04:06:44;11.20;1.00
15450;DHT22;7826;49.784;9.934;2023-10-08T04:09:18;11.20;1.00
15450;DHT22;7826;49.784;9.934;2023-10-08T04:11:47;11.20;1.00
15450;DHT22;7826;49.784;9.934;2023-10-08T04:14:25;11.20;1.00
15450;DHT22;7826;49.784;9.934;2023-10-08T04:16:52;11.20;1.00
15450;DHT22;7826;49.784;9.934;2023-10-08T04:19:20;11.20;1.00
15450;DHT22;7826;49.784;9.934;2023-10-08T04:21:47;11.20;1.00
15450;DHT22;7826;49.784;9.934;2023-10-08T04:24:23;11.30;1.00
15450;DHT22;7826;49.784;9.934;2023-10-08T04:26:56;11.20;1.00
15450;DHT22;7826;49.784;9.934;2023-10-08T04:29:25;11.20;1.00
15450;DHT22;7826;49.784;9.934;2023-10-08T04:31:52;11.20;1.00
15450;DHT22;7826;49.784;9.934;2023-10-08T04:34:30;11.10;1.00
15450;DHT22;7826;49.784;9.934;2023-10-08T04:36:59;11.10;1.00
15450;DHT22;7826;49.784;9.934;2023-10-08T04:39:27;11.10;1.00
15450;DHT22;7826;49.784;9.934;2023-10-08T04:42:01;11.10;1.00
15450;DHT22;7826;49.784;9.934;2023-10-08T04:44:37;11.20;1.00
15450;DHT22;7826;49.784;9.934;2023-10-08T04:47:07;11.20;1.00
15450;DHT22;7826;49.784;9.934;2023-10-08T04:49:54;11.20;1.00
15450;DHT22;7826;49.784;9.934;2023-10-08T04:52:20;11.20;1.00
15450;DHT22;7826;49.784;9.934;2023-10-08T04:54:51;11.10;1.00
15450;DHT22;7826;49.784;9.934;2023-10-08T04:57:18;11.20;1.00
15450;DHT22;7826;49.784;9.934;2023-10-08T04:59:49;11.20;1.00
15450;DHT22;7826;49.784;9.934;2023-10-08T05:02:18;11.10;1.00
15450;DHT22;7826;49.784;9.934;2023-10-08T05:04:47;11.10;1.00
15450;DHT22;7826;49.784;9.934;2023-10-08T05:07:33;11.00;1.00
15450;DHT22;7826;49.784;9.934;2023-10-08T05:10:15;11.00;1.00
15450;DHT22;7826;49.784;9.934;2023-10-08T05:12:52;11.10;1.00
15450;DHT22;7826;49.784;9.934;2023-10-08T05:15:31;11.10;1.00
15450;DHT22;7826;49.784;9.934;2023-10-08T05:18:34;11.10;1.00
15450;DHT22;7826;49.784;9.934;2023-10-08T05:21:39;11.10;1.00
15450;DHT22;7826;49.784;9.934;2023-10-08T05:24:18;11.10;1.00
15450;DHT22;7826;49.784;9.934;2023-10-08T05:26:53;11.00;1.00
15450;DHT22;7826;49.784;9.934;2023-10-08T05:29:40;11.00;1.00
15450;DHT22;7826;49.784;9.934;2023-10-08T05:32:37;11.10;1.00
15450;DHT22;7826;49.784;9.934;2023-10-08T05:35:10;11.10;1.00
15450;DHT22;7826;49.784;9.934;2023-10-08T05:37:58;11.10;1.00
15450;DHT22;7826;49.784;9.934;2023-10-08T05:40:43;11.10;1.00
15450;DHT22;7826;49.784;9.934;2023-10-08T05:43:27;11.00;1.00
15450;DHT22;7826;49.784;9.934;2023-10-08T05:46:04;11.00;1.00
15450;DHT22;7826;49.784;9.934;2023-10-08T05:48:57;11.00;1.00
15450;DHT22;7826;49.784;9.934;2023-10-08T05:51:37;11.00;1.00
15450;DHT22;7826;49.784;9.934;2023-10-08T05:54:25;11.00;1.00
15450;DHT22;7826;49.784;9.934;2023-10-08T05:57:01;11.00;1.00
15450;DHT22;7826;49.784;9.934;2023-10-08T05:59:47;10.90;1.00
15450;DHT22;7826;49.784;9.934;2023-10-08T06:02:30;10.90;1.00
15450;DHT22;7826;49.784;9.934;2023-10-08T06:05:08;10.90;1.00
15450;DHT22;7826;49.784;9.934;2023-10-08T06:07:46;11.00;1.00
15450;DHT22;7826;49.784;9.934;2023-10-08T06:10:20;11.00;1.00
15450;DHT22;7826;49.784;9.934;2023-10-08T06:13:12;11.00;1.00
15450;DHT22;7826;49.784;9.934;2023-10-08T06:15:44;11.00;1.00
15450;DHT22;7826;49.784;9.934;2023-10-08T06:18:21;11.10;1.00
15450;DHT22;7826;49.784;9.934;2023-10-08T06:20:59;11.10;1.00
15450;DHT22;7826;49.784;9.934;2023-10-08T06:23:27;11.10;1.00
15450;DHT22;7826;49.784;9.934;2023-10-08T06:25:55;11.10;1.00
15450;DHT22;7826;49.784;9.934;2023-10-08T06:28:32;11.10;1.00
15450;DHT22;7826;49.784;9.934;2023-10-08T06:31:02;11.10;1.00
15450;DHT22;7826;49.784;9.934;2023-10-08T06:33:38;11.20;1.00
15450;DHT22;7826;49.784;9.934;2023-10-08T06:36:07;11.20;1.00
15450;DHT22;7826;49.784;9.934;2023-10-08T06:38:33;11.20;1.00
15450;DHT22;7826;49.784;9.934;2023-10-08T06:41:01;11.30;1.00
15450;DHT22;7826;49.784;9.934;2023-10-08T06:43:35;11.20;1.00
15450;DHT22;7826;49.784;9.934;2023-10-08T06:46:06;11.30;1.00
15450;DHT22;7826;49.784;9.934;2023-10-08T06:48:39;11.30;1.00
15450;DHT22;7826;49.784;9.934;2023-10-08T06:51:10;11.30;1.00
15450;DHT22;7826;49.784;9.934;2023-10-08T06:53:45;11.30;1.00
15450;DHT22;7826;49.784;9.934;2023-10-08T06:56:13;11.40;1.00
15450;DHT22;7826;49.784;9.934;2023-10-08T06:58:44;11.40;1.00
15450;DHT22;7826;49.784;9.934;2023-10-08T07:01:19;11.40;1.00
15450;DHT22;7826;49.784;9.934;2023-10-08T07:03:48;11.50;1.00
15450;DHT22;7826;49.784;9.934;2023-10-08T07:06:18;11.60;1.00
15450;DHT22;7826;49.784;9.934;2023-10-08T07:09:03;11.60;1.00
15450;DHT22;7826;49.784;9.934;2023-10-08T07:11:35;11.70;1.00
15450;DHT22;7826;49.784;9.934;2023-10-08T07:14:08;11.60;1.00
15450;DHT22;7826;49.784;9.934;2023-10-08T07:16:37;11.70;1.00
15450;DHT22;7826;49.784;9.934;2023-10-08T07:19:03;11.80;1.00
15450;DHT22;7826;49.784;9.934;2023-10-08T07:21:42;11.90;1.00
15450;DHT22;7826;49.784;9.934;2023-10-08T07:24:14;12.00;1.00
15450;DHT22;7826;49.784;9.934;2023-10-08T07:26:48;12.20;1.00
15450;DHT22;7826;49.784;9.934;2023-10-08T07:29:16;12.20;1.00
15450;DHT22;7826;49.784;9.934;2023-10-08T07:31:47;12.10;1.00
15450;DHT22;7826;49.784;9.934;2023-10-08T07:34:19;12.00;1.00
15450;DHT22;7826;49.784;9.934;2023-10-08T07:36:54;12.20;1.00
15450;DHT22;7826;49.784;9.934;2023-10-08T07:39:22;12.60;1.00
15450;DHT22;7826;49.784;9.934;2023-10-08T07:41:53;12.80;1.00
15450;DHT22;7826;49.784;9.934;2023-10-08T07:44:21;13.00;1.00
15450;DHT22;7826;49.784;9.934;2023-10-08T07:46:52;13.30;1.00
15450;DHT22;7826;49.784;9.934;2023-10-08T07:49:25;13.80;1.00
15450;DHT22;7826;49.784;9.934;2023-10-08T07:51:57;14.60;1.00
15450;DHT22;7826;49.784;9.934;2023-10-08T07:54:25;14.80;1.00
15450;DHT22;7826;49.784;9.934;2023-10-08T07:56:55;15.40;1.00
15450;DHT22;7826;49.784;9.934;2023-10-08T07:59:42;15.70;1.00
15450;DHT22;7826;49.784;9.934;2023-10-08T08:02:16;16.10;1.00
15450;DHT22;7826;49.784;9.934;2023-10-08T08:04:44;16.70;99.90
15450;DHT22;7826;49.784;9.934;2023-10-08T08:07:12;16.70;99.90
15450;DHT22;7826;49.784;9.934;2023-10-08T08:09:50;17.10;99.90
15450;DHT22;7826;49.784;9.934;2023-10-08T08:12:18;17.20;99.90
15450;DHT22;7826;49.784;9.934;2023-10-08T08:14:46;17.30;5.20
15450;DHT22;7826;49.784;9.934;2023-10-08T08:17:12;17.10;1.00
15450;DHT22;7826;49.784;9.934;2023-10-08T08:19:47;16.90;1.00
15450;DHT22;7826;49.784;9.934;2023-10-08T08:22:14;17.10;39.10
15450;DHT22;7826;49.784;9.934;2023-10-08T08:24:57;17.20;1.00
15450;DHT22;7826;49.784;9.934;2023-10-08T08:27:42;17.80;99.90
15450;DHT22;7826;49.784;9.934;2023-10-08T08:30:13;18.30;99.90
15450;DHT22;7826;49.784;9.934;2023-10-08T08:32:44;19.00;99.90
15450;DHT22;7826;49.784;9.934;2023-10-08T08:35:13;18.30;1.00
15450;DHT22;7826;49.784;9.934;2023-10-08T08:37:44;17.70;99.90
15450;DHT22;7826;49.784;9.934;2023-10-08T08:40:12;18.00;99.90
15450;DHT22;7826;49.784;9.934;2023-10-08T08:42:48;18.10;99.90
15450;DHT22;7826;49.784;9.934;2023-10-08T08:45:19;18.10;1.00
15450;DHT22;7826;49.784;9.934;2023-10-08T08:47:47;18.50;99.90
15450;DHT22;7826;49.784;9.934;2023-10-08T08:50:14;17.80;99.90
15450;DHT22;7826;49.784;9.934;2023-10-08T08:52:41;17.70;1.00
15450;DHT22;7826;49.784;9.934;2023-10-08T08:55:09;17.20;99.90
15450;DHT22;7826;49.784;9.934;2023-10-08T08:57:48;17.00;72.90
15450;DHT22;7826;49.784;9.934;2023-10-08T09:00:17;16.40;1.00
15450;DHT22;7826;49.784;9.934;2023-10-08T09:02:45;15.80;1.00
15450;DHT22;7826;49.784;9.934;2023-10-08T09:05:13;15.80;1.00
15450;DHT22;7826;49.784;9.934;2023-10-08T09:08:11;15.80;1.00
15450;DHT22;7826;49.784;9.934;2023-10-08T09:10:38;15.70;99.90
15450;DHT22;7826;49.784;9.934;2023-10-08T09:13:20;15.80;10.00
15450;DHT22;7826;49.784;9.934;2023-10-08T09:15:47;16.10;99.90
15450;DHT22;7826;49.784;9.934;2023-10-08T09:18:14;16.60;99.90
15450;DHT22;7826;49.784;9.934;2023-10-08T09:20:41;16.70;1.00
15450;DHT22;7826;49.784;9.934;2023-10-08T09:23:12;16.50;1.00
15450;DHT22;7826;49.784;9.934;2023-10-08T09:25:44;16.50;1.00
15450;DHT22;7826;49.784;9.934;2023-10-08T09:28:37;15.80;1.00
15450;DHT22;7826;49.784;9.934;2023-10-08T09:31:05;15.70;1.00
15450;DHT22;7826;49.784;9.934;2023-10-08T09:33:32;15.70;1.00
15450;DHT22;7826;49.784;9.934;2023-10-08T09:35:59;15.70;1.00
15450;DHT22;7826;49.784;9.934;2023-10-08T09:38:29;15.30;90.20
15450;DHT22;7826;49.784;9.934;2023-10-08T09:40:57;15.10;20.60
15450;DHT22;7826;49.784;9.934;2023-10-08T09:43:24;14.90;99.90
15450;DHT22;7826;49.784;9.934;2023-10-08T09:45:57;14.50;99.90
15450;DHT22;7826;49.784;9.934;2023-10-08T09:48:26;14.40;99.90
15450;DHT22;7826;49.784;9.934;2023-10-08T09:50:54;14.30;99.90
15450;DHT22;7826;49.784;9.934;2023-10-08T09:56:15;14.30;1.00
15450;DHT22;7826;49.784;9.934;2023-10-08T09:58:43;14.20;99.90
15450;DHT22;7826;49.784;9.934;2023-10-08T10:01:11;14.20;99.90
15450;DHT22;7826;49.784;9.934;2023-10-08T10:03:38;14.00;1.00
15450;DHT22;7826;49.784;9.934;2023-10-08T10:06:12;13.90;99.90
15450;DHT22;7826;49.784;9.934;2023-10-08T10:08:42;13.80;99.90
15450;DHT22;7826;49.784;9.934;2023-10-08T10:11:08;13.60;1.00
15450;DHT22;7826;49.784;9.934;2023-10-08T10:13:45;13.50;1.00
15450;DHT22;7826;49.784;9.934;2023-10-08T10:16:21;13.60;99.90
15450;DHT22;7826;49.784;9.934;2023-10-08T10:18:54;14.10;99.90
15450;DHT22;7826;49.784;9.934;2023-10-08T10:21:25;14.80;99.90
15450;DHT22;7826;49.784;9.934;2023-10-08T10:23:53;15.50;99.90
15450;DHT22;7826;49.784;9.934;2023-10-08T10:31:38;15.10;1.00
15450;DHT22;7826;49.784;9.934;2023-10-08T10:34:09;15.30;1.00
15450;DHT22;7826;49.784;9.934;2023-10-08T10:36:39;15.20;99.90
15450;DHT22;7826;49.784;9.934;2023-10-08T10:39:06;15.00;99.90
15450;DHT22;7826;49.784;9.934;2023-10-08T10:41:44;14.70;25.40
15450;DHT22;7826;49.784;9.934;2023-10-08T10:44:16;14.50;1.00
15450;DHT22;7826;49.784;9.934;2023-10-08T10:46:44;14.70;1.00
15450;DHT22;7826;49.784;9.934;2023-10-08T10:49:18;14.90;99.90
15450;DHT22;7826;49.784;9.934;2023-10-08T10:52:05;15.00;99.90
15450;DHT22;7826;49.784;9.934;2023-10-08T10:54:44;14.90;1.00
15450;DHT22;7826;49.784;9.934;2023-10-08T10:57:27;14.80;99.90
15450;DHT22;7826;49.784;9.934;2023-10-08T11:00:04;14.90;99.90
15450;DHT22;7826;49.784;9.934;2023-10-08T11:02:47;14.90;99.90
15450;DHT22;7826;49.784;9.934;2023-10-08T11:05:16;14.90;1.00
15450;DHT22;7826;49.784;9.934;2023-10-08T11:07:47;15.20;99.90
15450;DHT22;7826;49.784;9.934;2023-10-08T11:10:14;15.50;1.00
15450;DHT22;7826;49.784;9.934;2023-10-08T11:12:42;15.70;48.10
15450;DHT22;7826;49.784;9.934;2023-10-08T11:15:13;15.50;1.00
15450;DHT22;7826;49.784;9.934;2023-10-08T11:17:44;15.50;1.00
15450;DHT22;7826;49.784;9.934;2023-10-08T11:20:25;15.30;99.90
15450;DHT22;7826;49.784;9.934;2023-10-08T11:22:53;15.00;99.90
15450;DHT22;7826;49.784;9.934;2023-10-08T11:25:24;15.00;1.00
15450;DHT22;7826;49.784;9.934;2023-10-08T11:27:57;15.20;99.90
15450;DHT22;7826;49.784;9.934;2023-10-08T11:30:35;15.50;99.90
15450;DHT22;7826;49.784;9.934;2023-10-08T11:33:02;16.10;99.90
15450;DHT22;7826;49.784;9.934;2023-10-08T11:35:32;16.90;38.10
15450;DHT22;7826;49.784;9.934;2023-10-08T11:38:06;18.20;99.90
15450;DHT22;7826;49.784;9.934;2023-10-08T11:40:41;19.90;1.00
15450;DHT22;7826;49.784;9.934;2023-10-08T11:43:15;21.30;1.00
15450;DHT22;7826;49.784;9.934;2023-10-08T11:45:43;21.90;99.90
15450;DHT22;7826;49.784;9.934;2023-10-08T11:48:15;23.00;1.00
15450;DHT22;7826;49.784;9.934;2023-10-08T11:50:49;23.20;1.00
15450;DHT22;7826;49.784;9.934;2023-10-08T11:53:17;23.00;99.90
15450;DHT22;7826;49.784;9.934;2023-10-08T11:55:45;22.70;99.90
15450;DHT22;7826;49.784;9.934;2023-10-08T11:58:14;23.50;1.00
15450;DHT22;7826;49.784;9.934;2023-10-08T12:00:44;23.30;99.90
15450;DHT22;7826;49.784;9.934;2023-10-08T12:03:12;23.20;99.90
15450;DHT22;7826;49.784;9.934;2023-10-08T12:05:41;22.40;99.90
15450;DHT22;7826;49.784;9.934;2023-10-08T12:08:15;22.90;1.00
15450;DHT22;7826;49.784;9.934;2023-10-08T12:10:43;23.40;1.00
15450;DHT22;7826;49.784;9.934;2023-10-08T12:13:10;23.80;1.00
15450;DHT22;7826;49.784;9.934;2023-10-08T12:15:37;23.20;99.90
15450;DHT22;7826;49.784;9.934;2023-10-08T12:18:08;22.70;99.90
15450;DHT22;7826;49.784;9.934;2023-10-08T12:20:40;22.40;99.90
15450;DHT22;7826;49.784;9.934;2023-10-08T12:23:14;21.50;99.90
15450;DHT22;7826;49.784;9.934;2023-10-08T12:25:56;20.90;99.90
15450;DHT22;7826;49.784;9.934;2023-10-08T12:28:23;20.70;1.00
15450;DHT22;7826;49.784;9.934;2023-10-08T12:30:53;20.40;1.00
15450;DHT22;7826;49.784;9.934;2023-10-08T12:33:20;19.60;1.00
15450;DHT22;7826;49.784;9.934;2023-10-08T12:35:48;19.50;99.90
15450;DHT22;7826;49.784;9.934;2023-10-08T12:38:15;18.80;99.90
15450;DHT22;7826;49.784;9.934;2023-10-08T12:40:41;18.20;1.00
15450;DHT22;7826;49.784;9.934;2023-10-08T12:43:14;17.90;99.90
15450;DHT22;7826;49.784;9.934;2023-10-08T12:45:52;17.60;1.00
15450;DHT22;7826;49.784;9.934;2023-10-08T12:48:26;17.80;1.00
15450;DHT22;7826;49.784;9.934;2023-10-08T12:50:56;18.50;99.90
15450;DHT22;7826;49.784;9.934;2023-10-08T12:53:27;19.00;99.90
15450;DHT22;7826;49.784;9.934;2023-10-08T12:56:09;19.70;1.00
15450;DHT22;7826;49.784;9.934;2023-10-08T12:58:42;20.20;99.90
15450;DHT22;7826;49.784;9.934;2023-10-08T13:01:15;20.00;1.00
15450;DHT22;7826;49.784;9.934;2023-10-08T13:03:47;20.00;99.90
15450;DHT22;7826;49.784;9.934;2023-10-08T13:06:18;20.40;1.00
15450;DHT22;7826;49.784;9.934;2023-10-08T13:08:52;20.50;99.90
15450;DHT22;7826;49.784;9.934;2023-10-08T13:11:23;19.90;1.00
15450;DHT22;7826;49.784;9.934;2023-10-08T13:13:51;19.90;99.90
15450;DHT22;7826;49.784;9.934;2023-10-08T13:16:18;19.30;99.90
15450;DHT22;7826;49.784;9.934;2023-10-08T13:18:48;18.80;20.20
15450;DHT22;7826;49.784;9.934;2023-10-08T13:21:15;18.00;99.90
15450;DHT22;7826;49.784;9.934;2023-10-08T13:23:42;18.10;1.00
15450;DHT22;7826;49.784;9.934;2023-10-08T13:26:09;19.00;99.90
15450;DHT22;7826;49.784;9.934;2023-10-08T13:28:36;19.00;60.60
15450;DHT22;7826;49.784;9.934;2023-10-08T13:31:03;18.00;99.90
15450;DHT22;7826;49.784;9.934;2023-10-08T13:33:41;17.70;1.00
15450;DHT22;7826;49.784;9.934;2023-10-08T13:36:15;17.30;99.90
15450;DHT22;7826;49.784;9.934;2023-10-08T13:38:42;17.30;99.90
15450;DHT22;7826;49.784;9.934;2023-10-08T13:41:15;17.20;1.00
15450;DHT22;7826;49.784;9.934;2023-10-08T13:43:44;17.10;1.00
15450;DHT22;7826;49.784;9.934;2023-10-08T13:46:17;16.70;99.90
15450;DHT22;7826;49.784;9.934;2023-10-08T13:48:45;16.60;1.00
15450;DHT22;7826;49.784;9.934;2023-10-08T13:51:15;16.60;33.40
15450;DHT22;7826;49.784;9.934;2023-10-08T13:53:51;16.70;1.00
15450;DHT22;7826;49.784;9.934;2023-10-08T13:56:26;16.70;1.00
15450;DHT22;7826;49.784;9.934;2023-10-08T13:58:54;16.60;1.00
15450;DHT22;7826;49.784;9.934;2023-10-08T14:01:42;16.50;99.90
15450;DHT22;7826;49.784;9.934;2023-10-08T14:04:18;16.20;99.90
15450;DHT22;7826;49.784;9.934;2023-10-08T14:06:52;16.10;99.90
15450;DHT22;7826;49.784;9.934;2023-10-08T14:09:21;16.00;1.00
15450;DHT22;7826;49.784;9.934;2023-10-08T14:11:49;15.90;8.50
15450;DHT22;7826;49.784;9.934;2023-10-08T14:14:19;15.90;99.90
15450;DHT22;7826;49.784;9.934;2023-10-08T14:16:46;15.80;1.00
15450;DHT22;7826;49.784;9.934;2023-10-08T14:19:18;15.90;23.80
15450;DHT22;7826;49.784;9.934;2023-10-08T14:21:49;15.90;99.90
15450;DHT22;7826;49.784;9.934;2023-10-08T14:24:20;15.80;1.00
15450;DHT22;7826;49.784;9.934;2023-10-08T14:26:47;15.60;1.00
15450;DHT22;7826;49.784;9.934;2023-10-08T14:29:20;15.50;99.90
15450;DHT22;7826;49.784;9.934;2023-10-08T14:31:47;15.40;1.00
15450;DHT22;7826;49.784;9.934;2023-10-08T14:34:16;15.30;1.00
15450;DHT22;7826;49.784;9.934;2023-10-08T14:36:47;15.20;1.00
15450;DHT22;7826;49.784;9.934;2023-10-08T14:39:32;15.30;39.10
15450;DHT22;7826;49.784;9.934;2023-10-08T14:42:18;15.20;1.00
15450;DHT22;7826;49.784;9.934;2023-10-08T14:45:06;15.20;1.00
15450;DHT22;7826;49.784;9.934;2023-10-08T14:47:38;15.10;99.90
15450;DHT22;7826;49.784;9.934;2023-10-08T14:50:04;15.00;99.90
15450;DHT22;7826;49.784;9.934;2023-10-08T14:52:32;14.90;99.90
15450;DHT22;7826;49.784;9.934;2023-10-08T14:55:00;14.90;99.90
15450;DHT22;7826;49.784;9.934;2023-10-08T14:57:26;14.80;99.90
15450;DHT22;7826;49.784;9.934;2023-10-08T14:59:53;14.80;1.00
15450;DHT22;7826;49.784;9.934;2023-10-08T15:02:19;14.70;1.00
15450;DHT22;7826;49.784;9.934;2023-10-08T15:04:46;14.60;99.90
15450;DHT22;7826;49.784;9.934;2023-10-08T15:07:12;14.50;1.00
15450;DHT22;7826;49.784;9.934;2023-10-08T15:09:44;14.50;1.00
15450;DHT22;7826;49.784;9.934;2023-10-08T15:12:11;14.40;99.90
15450;DHT22;7826;49.784;9.934;2023-10-08T15:14:37;14.30;1.00
15450;DHT22;7826;49.784;9.934;2023-10-08T15:17:04;14.30;99.90
15450;DHT22;7826;49.784;9.934;2023-10-08T15:19:31;14.20;99.90
15450;DHT22;7826;49.784;9.934;2023-10-08T15:21:58;14.10;10.40
15450;DHT22;7826;49.784;9.934;2023-10-08T15:24:25;14.10;99.90
15450;DHT22;7826;49.784;9.934;2023-10-08T15:26:52;14.10;1.00
15450;DHT22;7826;49.784;9.934;2023-10-08T15:29:20;14.10;1.00
15450;DHT22;7826;49.784;9.934;2023-10-08T15:31:50;14.10;33.90
15450;DHT22;7826;49.784;9.934;2023-10-08T15:34:18;13.90;99.90
15450;DHT22;7826;49.784;9.934;2023-10-08T15:36:44;13.80;1.00
15450;DHT22;7826;49.784;9.934;2023-10-08T15:39:11;13.80;1.00
15450;DHT22;7826;49.784;9.934;2023-10-08T15:41:49;13.80;99.90
15450;DHT22;7826;49.784;9.934;2023-10-08T15:44:19;13.70;99.90
15450;DHT22;7826;49.784;9.934;2023-10-08T15:46:49;13.70;99.90
15450;DHT22;7826;49.784;9.934;2023-10-08T15:49:18;13.70;99.90
15450;DHT22;7826;49.784;9.934;2023-10-08T15:51:46;13.70;1.00
15450;DHT22;7826;49.784;9.934;2023-10-08T15:54:13;13.60;1.00
15450;DHT22;7826;49.784;9.934;2023-10-08T15:56:40;13.50;1.00
15450;DHT22;7826;49.784;9.934;2023-10-08T15:59:06;13.60;1.00
15450;DHT22;7826;49.784;9.934;2023-10-08T16:01:33;13.50;1.00
15450;DHT22;7826;49.784;9.934;2023-10-08T16:03:59;13.40;1.00
15450;DHT22;7826;49.784;9.934;2023-10-08T16:06:26;13.30;1.00
15450;DHT22;7826;49.784;9.934;2023-10-08T16:08:52;13.30;1.00
15450;DHT22;7826;49.784;9.934;2023-10-08T16:11:18;13.20;20.10
15450;DHT22;7826;49.784;9.934;2023-10-08T16:13:45;13.20;1.00
15450;DHT22;7826;49.784;9.934;2023-10-08T16:16:12;13.20;1.00
15450;DHT22;7826;49.784;9.934;2023-10-08T16:18:40;13.20;84.00
15450;DHT22;7826;49.784;9.934;2023-10-08T16:21:07;13.20;99.90
15450;DHT22;7826;49.784;9.934;2023-10-08T16:23:36;13.20;2.90
15450;DHT22;7826;49.784;9.934;2023-10-08T16:26:03;13.20;39.80
15450;DHT22;7826;49.784;9.934;2023-10-08T16:28:32;13.20;1.30
15450;DHT22;7826;49.784;9.934;2023-10-08T16:30:58;13.10;32.10
15450;DHT22;7826;49.784;9.934;2023-10-08T16:33:25;13.00;99.90
15450;DHT22;7826;49.784;9.934;2023-10-08T16:35:56;12.90;75.70